Time;durP1;ratioP1;P1;durP2;ratioP2;P2;SDS_P1;SDS_P2;PMS_P1;PMS_P2;Temp;Humidity;BMP_temperature;BMP_pressure;BME280_temperature;BME280_humidity;BME280_pressure;Samples;Min_cycle;Max_cycle;Signal;HPM_P1;HPM_P2
2021/12/03 00:01:04;;;;;;;15.88;5.57;;;-0.10;99.90;;;;;;5098264;28;20083;-86
2021/12/03 00:03:30;;;;;;;14.77;6.28;;;0.00;99.90;;;;;;5097591;28;20089;-85
2021/12/03 00:05:57;;;;;;;13.02;5.60;;;0.00;99.90;;;;;;5097915;28;20048;-86
2021/12/03 00:08:25;;;;;;;14.25;5.70;;;0.00;99.90;;;;;;5115079;28;20040;-86
2021/12/03 00:10:55;;;;;;;14.90;5.57;;;0.00;99.90;;;;;;5097203;28;20414;-87
2021/12/03 00:13:21;;;;;;;12.02;5.63;;;0.00;99.90;;;;;;5080380;28;20129;-85
2021/12/03 00:15:47;;;;;;;15.80;5.82;;;0.00;99.90;;;;;;5097873;28;20056;-86
2021/12/03 00:18:13;;;;;;;20.70;5.93;;;0.00;99.90;;;;;;5095912;28;20044;-85
2021/12/03 00:20:39;;;;;;;14.82;5.80;;;0.00;99.90;;;;;;5094078;28;20108;-86
2021/12/03 00:23:07;;;;;;;15.27;5.10;;;0.00;99.90;;;;;;5111398;28;20044;-85
2021/12/03 00:25:34;;;;;;;12.38;5.50;;;-0.10;99.90;;;;;;5094564;28;20048;-85
2021/12/03 00:28:00;;;;;;;9.95;5.72;;;-0.10;99.90;;;;;;5094599;28;20040;-85
2021/12/03 00:30:26;;;;;;;15.50;6.25;;;-0.10;99.90;;;;;;5094633;28;20489;-86
2021/12/03 00:32:52;;;;;;;16.02;7.22;;;-0.10;99.90;;;;;;5094276;28;20040;-87
2021/12/03 00:35:19;;;;;;;16.08;7.15;;;-0.10;99.90;;;;;;5094556;28;20367;-86
2021/12/03 00:37:46;;;;;;;19.95;7.68;;;-0.10;99.90;;;;;;5094688;28;20048;-85
2021/12/03 00:40:16;;;;;;;18.75;9.27;;;0.00;99.90;;;;;;5094459;28;20119;-87
2021/12/03 00:42:42;;;;;;;17.92;8.70;;;0.00;99.90;;;;;;5094199;28;20052;-86
2021/12/03 00:45:09;;;;;;;22.52;8.48;;;0.00;99.90;;;;;;5094144;28;20146;-86
2021/12/03 00:47:36;;;;;;;20.45;9.10;;;0.00;99.90;;;;;;5093978;28;20379;-85
2021/12/03 00:50:03;;;;;;;19.77;10.50;;;0.00;99.90;;;;;;5094220;28;20083;-86
2021/12/03 00:52:29;;;;;;;22.85;10.52;;;0.00;99.90;;;;;;5093988;28;20106;-86
2021/12/03 00:54:54;;;;;;;26.75;11.80;;;0.10;99.90;;;;;;5094141;28;20048;-86
2021/12/03 00:57:20;;;;;;;28.63;12.52;;;0.10;99.90;;;;;;5094011;28;20044;-86
2021/12/03 00:59:46;;;;;;;28.67;13.55;;;0.10;99.90;;;;;;5093925;28;20128;-85
2021/12/03 01:02:11;;;;;;;27.20;13.48;;;0.10;99.90;;;;;;5093577;28;20054;-85
2021/12/03 01:04:37;;;;;;;31.42;14.95;;;0.10;99.90;;;;;;5076589;28;20071;-86
2021/12/03 01:07:03;;;;;;;29.40;15.07;;;0.10;99.90;;;;;;5093893;28;20109;-85
2021/12/03 01:09:31;;;;;;;30.15;15.95;;;0.10;99.90;;;;;;5111087;28;20040;-85
2021/12/03 01:11:57;;;;;;;30.80;15.55;;;0.10;99.90;;;;;;5076151;28;20232;-85
2021/12/03 01:14:26;;;;;;;29.10;15.93;;;0.50;99.90;;;;;;5093831;28;20394;-85
2021/12/03 01:16:52;;;;;;;29.40;16.13;;;0.10;99.90;;;;;;5075537;28;20051;-86
2021/12/03 01:19:18;;;;;;;33.78;16.10;;;0.10;99.90;;;;;;5093166;28;20490;-86
2021/12/03 01:21:43;;;;;;;33.30;15.43;;;0.10;99.90;;;;;;5093547;28;20059;-85
2021/12/03 01:24:09;;;;;;;30.80;14.93;;;0.10;99.90;;;;;;5093316;28;20509;-85
2021/12/03 01:26:36;;;;;;;34.83;15.20;;;0.20;99.90;;;;;;5093540;28;20054;-85
2021/12/03 01:29:03;;;;;;;32.00;15.93;;;0.20;99.90;;;;;;5093423;28;20048;-87
2021/12/03 01:31:28;;;;;;;29.60;14.68;;;0.20;99.90;;;;;;5093045;28;20169;-85
2021/12/03 01:33:54;;;;;;;24.90;14.90;;;0.20;99.90;;;;;;5076393;28;20083;-85
2021/12/03 01:36:20;;;;;;;37.80;16.73;;;0.20;99.90;;;;;;5093279;28;20469;-85
2021/12/03 01:38:46;;;;;;;36.10;17.60;;;0.20;99.90;;;;;;5093325;28;20063;-86
2021/12/03 01:41:12;;;;;;;40.63;16.83;;;0.20;99.90;;;;;;5093328;28;20127;-85
2021/12/03 01:43:38;;;;;;;30.45;15.98;;;0.20;99.90;;;;;;5092943;28;20044;-84
2021/12/03 01:46:08;;;;;;;32.83;17.40;;;0.20;99.90;;;;;;5093027;28;20043;-85
2021/12/03 01:48:35;;;;;;;28.73;16.23;;;0.20;99.90;;;;;;5092767;28;20076;-86
2021/12/03 01:51:01;;;;;;;32.05;15.25;;;0.20;99.90;;;;;;5092615;28;20036;-86
2021/12/03 01:53:31;;;;;;;39.97;17.17;;;0.10;99.90;;;;;;5093165;28;20062;-85
2021/12/03 01:56:00;;;;;;;34.38;16.63;;;0.30;99.90;;;;;;5075689;28;20574;-86
2021/12/03 01:58:26;;;;;;;31.63;16.25;;;0.10;99.90;;;;;;5092882;28;20055;-85
2021/12/03 02:00:59;;;;;;;30.88;16.27;;;0.10;99.90;;;;;;5092715;28;20051;-85
2021/12/03 02:03:47;;;;;;;31.38;14.82;;;0.10;99.90;;;;;;5092680;28;20095;-85
2021/12/03 02:06:14;;;;;;;28.33;16.17;;;0.10;99.90;;;;;;5092659;28;20047;-85
2021/12/03 02:08:40;;;;;;;32.38;16.17;;;0.10;99.90;;;;;;5109577;28;20048;-86
2021/12/03 02:11:07;;;;;;;30.83;15.85;;;0.10;99.90;;;;;;5074918;28;20064;-85
2021/12/03 02:13:33;;;;;;;31.45;16.30;;;0.10;99.90;;;;;;5092502;28;20048;-87
2021/12/03 02:16:00;;;;;;;31.00;16.35;;;0.10;99.90;;;;;;5092332;28;20043;-85
2021/12/03 02:18:26;;;;;;;33.90;17.90;;;0.10;99.90;;;;;;5075246;28;20106;-87
2021/12/03 02:21:00;;;;;;;36.97;18.15;;;0.10;99.90;;;;;;5109114;28;20409;-85
2021/12/03 02:23:28;;;;;;;32.85;17.10;;;0.10;99.90;;;;;;5109154;28;20040;-86
2021/12/03 02:25:55;;;;;;;35.53;17.33;;;0.10;99.90;;;;;;5092310;28;20051;-86
2021/12/03 02:28:24;;;;;;;31.95;16.02;;;0.10;99.90;;;;;;5093092;28;20047;-86
2021/12/03 02:30:50;;;;;;;32.53;16.70;;;0.10;99.90;;;;;;5109414;28;20492;-86
2021/12/03 02:33:16;;;;;;;33.58;17.92;;;0.10;99.90;;;;;;5092283;28;20052;-86
2021/12/03 02:35:44;;;;;;;31.80;15.88;;;0.10;99.90;;;;;;5075381;28;20055;-86
2021/12/03 02:38:13;;;;;;;37.10;18.50;;;0.10;99.90;;;;;;5092152;28;20056;-86
2021/12/03 02:40:40;;;;;;;36.30;18.08;;;0.00;99.90;;;;;;5092097;28;20043;-85
2021/12/03 02:43:06;;;;;;;35.60;18.10;;;0.00;99.90;;;;;;5091170;28;20051;-86
2021/12/03 02:45:32;;;;;;;34.97;16.92;;;0.10;99.90;;;;;;5092261;28;20075;-86
2021/12/03 02:48:02;;;;;;;36.80;18.08;;;0.00;99.90;;;;;;5092253;28;20079;-87
2021/12/03 02:50:28;;;;;;;32.95;17.23;;;0.00;99.90;;;;;;5092123;28;20040;-86
2021/12/03 02:52:53;;;;;;;28.65;16.95;;;0.10;99.90;;;;;;5075306;28;20040;-85
2021/12/03 02:55:20;;;;;;;33.10;17.48;;;0.00;99.90;;;;;;5075299;28;20393;-86
2021/12/03 02:57:46;;;;;;;33.88;17.30;;;0.00;99.90;;;;;;5074227;28;20083;-86
2021/12/03 03:00:15;;;;;;;29.48;17.38;;;0.00;99.90;;;;;;5091923;28;20482;-85
2021/12/03 03:02:41;;;;;;;28.80;16.23;;;0.00;99.90;;;;;;5108834;28;20047;-85
2021/12/03 03:05:09;;;;;;;32.42;18.00;;;0.00;99.90;;;;;;5091943;28;20055;-86
2021/12/03 03:07:34;;;;;;;32.28;17.52;;;0.00;99.90;;;;;;5108835;28;20063;-86
2021/12/03 03:10:00;;;;;;;35.97;18.15;;;0.00;99.90;;;;;;5075121;28;20040;-85
2021/12/03 03:12:26;;;;;;;31.20;17.70;;;0.00;99.90;;;;;;5091448;28;20542;-86
2021/12/03 03:14:57;;;;;;;30.52;17.00;;;0.00;99.90;;;;;;5092040;28;20056;-85
2021/12/03 03:17:24;;;;;;;36.35;17.10;;;-0.10;99.90;;;;;;5074505;28;20056;-85
2021/12/03 03:19:51;;;;;;;25.60;16.33;;;0.00;99.90;;;;;;5074886;28;20410;-85
2021/12/03 03:22:18;;;;;;;28.88;15.35;;;-0.10;99.90;;;;;;5091323;28;20059;-85
2021/12/03 03:24:44;;;;;;;33.17;16.55;;;0.00;99.90;;;;;;5091514;28;20048;-86
2021/12/03 03:27:09;;;;;;;28.48;15.95;;;-0.10;99.90;;;;;;5091383;28;20055;-86
2021/12/03 03:29:35;;;;;;;31.27;16.70;;;-0.10;99.90;;;;;;5091465;28;20040;-86
2021/12/03 03:32:02;;;;;;;33.92;17.13;;;-0.10;99.90;;;;;;5091544;28;20045;-85
2021/12/03 03:34:28;;;;;;;28.27;16.48;;;-0.10;99.90;;;;;;5091657;28;20131;-85
2021/12/03 03:36:54;;;;;;;33.03;17.58;;;0.00;99.90;;;;;;5091547;28;20553;-86
2021/12/03 03:39:20;;;;;;;30.00;16.98;;;0.00;99.90;;;;;;5091543;28;20067;-85
2021/12/03 03:41:47;;;;;;;27.50;16.58;;;0.00;99.90;;;;;;5074448;28;20044;-85
2021/12/03 03:44:15;;;;;;;36.92;18.25;;;0.00;99.90;;;;;;5091381;28;20044;-85
2021/12/03 03:46:45;;;;;;;29.95;17.05;;;0.00;99.90;;;;;;5091546;28;20044;-85
2021/12/03 03:49:11;;;;;;;29.20;15.85;;;0.40;99.90;;;;;;5091713;28;20467;-85
2021/12/03 03:51:37;;;;;;;30.83;17.40;;;0.00;99.90;;;;;;5074601;28;20044;-85
2021/12/03 03:54:03;;;;;;;28.77;16.92;;;0.00;99.90;;;;;;5092313;28;20131;-85
2021/12/03 03:56:30;;;;;;;32.10;17.02;;;0.00;99.90;;;;;;5094925;28;20139;-86
2021/12/03 03:58:55;;;;;;;24.10;16.13;;;0.00;99.90;;;;;;5077415;28;20575;-85
2021/12/03 04:01:21;;;;;;;32.53;17.48;;;0.00;99.90;;;;;;5078045;28;20044;-85
2021/12/03 04:03:47;;;;;;;28.23;15.90;;;0.00;99.90;;;;;;5094928;28;20036;-85
2021/12/03 04:06:15;;;;;;;26.27;15.32;;;0.30;99.90;;;;;;5111931;28;20048;-86
2021/12/03 04:08:42;;;;;;;28.83;16.35;;;0.00;99.90;;;;;;5094877;28;20100;-85
2021/12/03 04:11:07;;;;;;;27.90;16.52;;;0.00;99.90;;;;;;5077789;28;20128;-86
2021/12/03 04:13:33;;;;;;;25.20;16.05;;;0.00;99.90;;;;;;5094648;28;20130;-85
2021/12/03 04:15:59;;;;;;;28.25;17.40;;;0.00;99.90;;;;;;5077702;28;20052;-86
2021/12/03 04:18:25;;;;;;;32.75;17.30;;;0.00;99.90;;;;;;5094692;28;20517;-87
2021/12/03 04:20:51;;;;;;;28.33;17.23;;;0.20;99.90;;;;;;5097242;28;20052;-85
2021/12/03 04:23:19;;;;;;;32.05;16.58;;;0.00;99.90;;;;;;5080921;28;20059;-85
2021/12/03 04:25:46;;;;;;;27.98;16.65;;;0.00;99.90;;;;;;5097975;28;20059;-85
2021/12/03 04:28:14;;;;;;;33.63;17.20;;;0.00;99.90;;;;;;5097714;28;20059;-86
2021/12/03 04:30:40;;;;;;;27.17;17.08;;;0.00;99.90;;;;;;5098032;28;20062;-85
2021/12/03 04:33:06;;;;;;;27.15;16.88;;;0.00;99.90;;;;;;5097975;28;20048;-85
2021/12/03 04:35:32;;;;;;;30.35;17.23;;;0.00;99.90;;;;;;5097664;28;20047;-85
2021/12/03 04:37:59;;;;;;;31.25;16.73;;;0.00;99.90;;;;;;5080527;28;20062;-85
2021/12/03 04:40:26;;;;;;;28.58;16.60;;;0.00;99.90;;;;;;5097620;28;20047;-86
2021/12/03 04:42:52;;;;;;;28.42;17.13;;;0.00;99.90;;;;;;5080013;28;20130;-85
2021/12/03 04:45:23;;;;;;;34.72;18.15;;;0.10;99.90;;;;;;5080818;28;20139;-86
2021/12/03 04:47:50;;;;;;;31.58;18.40;;;0.10;99.90;;;;;;5080255;28;20060;-85
2021/12/03 04:50:19;;;;;;;34.95;18.23;;;0.30;99.90;;;;;;5097572;28;20047;-87
2021/12/03 04:52:45;;;;;;;295.10;29.95;;;0.10;99.90;;;;;;5097414;28;20090;-85
2021/12/03 04:55:12;;;;;;;746.70;197.13;;;0.10;99.90;;;;;;5097394;28;20400;-85
2021/12/03 04:57:39;;;;;;;178.75;26.75;;;0.10;99.90;;;;;;5097117;28;20045;-85
2021/12/03 05:00:10;;;;;;;220.70;29.35;;;0.10;99.90;;;;;;5097621;28;20044;-85
2021/12/03 05:02:35;;;;;;;54.30;18.97;;;0.20;99.90;;;;;;5097294;28;20042;-84
2021/12/03 05:05:05;;;;;;;33.65;17.58;;;0.20;99.90;;;;;;5096353;28;20134;-86
2021/12/03 05:10:04;;;;;;;862.28;70.45;;;0.20;99.90;;;;;;5096811;28;20499;-87
2021/12/03 05:12:30;;;;;;;255.25;26.75;;;0.20;99.90;;;;;;5097238;28;20050;-89
2021/12/03 05:14:55;;;;;;;34.25;17.73;;;0.50;99.90;;;;;;5097335;28;20481;-87
2021/12/03 05:17:22;;;;;;;34.22;18.10;;;0.30;99.90;;;;;;5096994;28;20044;-86
2021/12/03 05:19:49;;;;;;;33.28;17.88;;;0.30;99.90;;;;;;5096724;28;20454;-86
2021/12/03 05:22:14;;;;;;;181.32;22.33;;;0.30;99.90;;;;;;5079895;28;20097;-85
2021/12/03 05:24:45;;;;;;;56.15;17.15;;;0.30;99.90;;;;;;5096708;28;20047;-85
2021/12/03 05:27:13;;;;;;;30.20;15.57;;;0.30;99.90;;;;;;5097039;28;20053;-85
2021/12/03 05:29:41;;;;;;;34.40;16.60;;;0.30;99.90;;;;;;5096952;28;20047;-85
2021/12/03 05:32:07;;;;;;;29.02;14.43;;;0.30;99.90;;;;;;5096616;28;20045;-86
2021/12/03 05:34:33;;;;;;;38.20;15.73;;;0.40;99.90;;;;;;5096789;28;20047;-86
2021/12/03 05:36:59;;;;;;;31.20;15.95;;;0.40;99.90;;;;;;5096630;28;20135;-87
2021/12/03 05:39:25;;;;;;;31.27;14.68;;;0.40;99.90;;;;;;5096660;28;20101;-88
2021/12/03 05:41:50;;;;;;;36.25;15.13;;;0.40;99.90;;;;;;5079053;28;20104;-86
2021/12/03 05:44:16;;;;;;;31.27;15.88;;;0.40;99.90;;;;;;5079374;28;20047;-87
2021/12/03 05:46:42;;;;;;;31.50;15.73;;;0.40;99.90;;;;;;5079603;28;20465;-86
2021/12/03 05:49:08;;;;;;;31.13;15.13;;;0.40;99.90;;;;;;5096658;28;20557;-86
2021/12/03 05:51:34;;;;;;;24.85;13.63;;;0.80;99.90;;;;;;5096356;28;20051;-87
2021/12/03 05:53:59;;;;;;;29.98;14.63;;;0.40;99.90;;;;;;5079056;28;20049;-89
2021/12/03 05:56:25;;;;;;;28.50;14.98;;;0.40;99.90;;;;;;5096313;28;20043;-88
2021/12/03 05:58:51;;;;;;;27.48;15.23;;;0.40;99.90;;;;;;5078786;28;20051;-87
2021/12/03 06:01:17;;;;;;;32.08;15.45;;;0.40;99.90;;;;;;5079280;28;20059;-87
2021/12/03 06:03:45;;;;;;;27.52;14.25;;;0.40;99.90;;;;;;5095938;28;20040;-87
2021/12/03 06:06:13;;;;;;;28.23;14.18;;;0.40;99.90;;;;;;5095885;28;20120;-87
2021/12/03 06:08:38;;;;;;;26.05;13.73;;;0.40;99.90;;;;;;5095937;28;20043;-87
2021/12/03 06:11:04;;;;;;;30.90;14.98;;;0.40;99.90;;;;;;5078733;28;20070;-86
2021/12/03 06:13:30;;;;;;;32.13;15.40;;;0.40;99.90;;;;;;5096258;28;20378;-88
2021/12/03 06:15:55;;;;;;;27.27;14.25;;;0.50;99.90;;;;;;5095761;28;20468;-88
2021/12/03 06:18:21;;;;;;;28.02;14.02;;;0.50;99.90;;;;;;5095459;28;20082;-87
2021/12/03 06:20:47;;;;;;;26.63;14.18;;;0.50;99.90;;;;;;5095607;28;20059;-88
2021/12/03 06:23:12;;;;;;;38.83;14.63;;;0.50;99.90;;;;;;5095559;28;20055;-87
2021/12/03 06:25:38;;;;;;;22.90;12.38;;;0.50;99.90;;;;;;5095633;28;20522;-86
2021/12/03 06:28:05;;;;;;;27.63;13.93;;;0.50;99.90;;;;;;5095949;28;20500;-88
2021/12/03 06:30:30;;;;;;;28.98;14.48;;;0.50;99.90;;;;;;5095794;28;20086;-88
2021/12/03 06:32:56;;;;;;;34.75;14.68;;;0.50;99.90;;;;;;5096076;28;20109;-89
2021/12/03 06:35:23;;;;;;;21.05;10.95;;;0.50;99.90;;;;;;5095800;28;20036;-85
2021/12/03 06:37:49;;;;;;;26.98;14.90;;;0.60;99.90;;;;;;5095637;28;20078;-88
2021/12/03 06:40:18;;;;;;;29.08;14.60;;;0.60;99.90;;;;;;5095432;28;20052;-86
2021/12/03 06:42:44;;;;;;;34.17;15.95;;;0.60;99.90;;;;;;5078674;28;20055;-89
2021/12/03 06:45:11;;;;;;;25.58;14.60;;;0.60;99.90;;;;;;5095792;28;20065;-88
2021/12/03 06:47:37;;;;;;;27.88;13.13;;;0.70;99.90;;;;;;5112918;28;20081;-89
2021/12/03 06:50:07;;;;;;;37.30;14.32;;;0.70;99.90;;;;;;5095348;28;20047;-89
2021/12/03 06:52:34;;;;;;;35.95;14.95;;;0.70;99.90;;;;;;5095554;28;20435;-91
2021/12/03 06:55:03;;;;;;;24.45;13.63;;;0.70;99.90;;;;;;5095339;28;20043;-89
2021/12/03 06:57:28;;;;;;;31.20;15.25;;;0.80;99.90;;;;;;5095545;28;20066;-89
2021/12/03 06:59:54;;;;;;;30.50;15.40;;;0.80;99.90;;;;;;5079031;28;20548;-89
2021/12/03 07:02:19;;;;;;;32.30;14.98;;;0.80;99.90;;;;;;5095961;28;20047;-91
2021/12/03 07:04:48;;;;;;;28.15;14.80;;;0.90;99.90;;;;;;5078552;28;20443;-92
2021/12/03 07:07:14;;;;;;;35.05;16.00;;;0.90;99.90;;;;;;5079673;28;20086;-91
2021/12/03 07:09:41;;;;;;;36.17;15.93;;;0.90;99.90;;;;;;5095569;28;20071;-89
2021/12/03 07:12:08;;;;;;;36.60;15.73;;;1.00;99.90;;;;;;5079611;28;20481;-93
2021/12/03 07:14:34;;;;;;;42.83;16.92;;;1.00;99.90;;;;;;5096300;28;20044;-92
2021/12/03 07:17:05;;;;;;;38.97;17.20;;;1.10;99.90;;;;;;5080039;28;20495;-93
2021/12/03 07:19:31;;;;;;;43.33;17.48;;;1.00;99.90;;;;;;5080110;28;20130;-94
2021/12/03 07:21:56;;;;;;;46.78;18.25;;;1.00;99.90;;;;;;5080298;28;20087;-95
2021/12/03 07:24:22;;;;;;;44.50;16.85;;;1.00;99.90;;;;;;5080462;28;20126;-95
2021/12/03 07:26:48;;;;;;;43.35;17.95;;;1.10;99.90;;;;;;5080029;28;20122;-93
2021/12/03 07:29:14;;;;;;;43.40;17.58;;;1.10;99.90;;;;;;5083422;28;20046;-94
2021/12/03 07:31:40;;;;;;;37.78;17.52;;;1.30;99.90;;;;;;5083505;28;20043;-93
2021/12/03 07:34:05;;;;;;;40.40;17.05;;;1.20;99.90;;;;;;5083859;28;20046;-93
2021/12/03 07:36:31;;;;;;;38.75;17.17;;;0.90;99.90;;;;;;5083405;28;20043;-93
2021/12/03 07:38:57;;;;;;;43.55;17.80;;;1.00;99.90;;;;;;5083642;28;20059;-93
2021/12/03 07:41:23;;;;;;;37.97;16.50;;;1.50;99.90;;;;;;5082979;28;20043;-91
2021/12/03 07:43:49;;;;;;;44.05;16.58;;;1.20;99.90;;;;;;5083068;28;20047;-93
2021/12/03 07:46:15;;;;;;;39.65;17.38;;;1.30;99.90;;;;;;5100017;28;20044;-94
2021/12/03 07:48:46;;;;;;;46.83;19.30;;;1.70;99.90;;;;;;5083168;28;20051;-90
2021/12/03 07:51:14;;;;;;;49.78;19.95;;;1.50;99.90;;;;;;5082852;28;20044;-93
2021/12/03 07:53:39;;;;;;;47.13;21.70;;;1.70;99.90;;;;;;5083029;28;20039;-92
2021/12/03 07:56:05;;;;;;;55.10;23.02;;;1.50;99.90;;;;;;5082641;28;20047;-92
2021/12/03 07:58:31;;;;;;;56.00;22.90;;;1.60;99.90;;;;;;5082846;28;20043;-92
2021/12/03 08:00:58;;;;;;;47.75;22.98;;;1.60;99.90;;;;;;5082790;28;20051;-91
2021/12/03 08:03:23;;;;;;;48.25;23.30;;;1.60;99.90;;;;;;5082789;28;20044;-93
2021/12/03 08:05:49;;;;;;;52.95;24.63;;;1.70;99.90;;;;;;5087117;27;20066;-92
2021/12/03 08:08:22;;;;;;;57.10;25.08;;;1.70;99.90;;;;;;5101690;27;20043;-91
2021/12/03 08:10:49;;;;;;;49.72;22.27;;;1.70;99.90;;;;;;5102342;27;20062;-91
2021/12/03 08:13:15;;;;;;;52.63;24.67;;;1.70;99.90;;;;;;5102694;27;20484;-90
2021/12/03 08:15:41;;;;;;;62.65;26.02;;;1.50;99.90;;;;;;5103174;27;20054;-90
2021/12/03 08:18:06;;;;;;;54.67;23.60;;;1.80;99.90;;;;;;5120043;27;20046;-91
2021/12/03 08:20:32;;;;;;;55.10;25.10;;;1.80;99.90;;;;;;5102689;27;20464;-90
2021/12/03 08:22:59;;;;;;;63.55;26.80;;;1.70;99.90;;;;;;5102589;27;20103;-89
2021/12/03 08:25:26;;;;;;;59.03;26.63;;;1.90;99.90;;;;;;5119529;27;20131;-91
2021/12/03 08:27:53;;;;;;;61.75;26.67;;;1.90;99.90;;;;;;5102474;27;20111;-91
2021/12/03 08:30:19;;;;;;;63.40;27.73;;;1.80;99.90;;;;;;5102482;27;20046;-89
2021/12/03 08:32:45;;;;;;;75.60;30.40;;;1.90;99.90;;;;;;5119058;27;20051;-91
2021/12/03 08:35:10;;;;;;;59.38;26.10;;;1.80;99.90;;;;;;5119108;27;20082;-89
2021/12/03 08:37:37;;;;;;;57.75;26.90;;;1.90;99.90;;;;;;5101719;27;20509;-89
2021/12/03 08:40:04;;;;;;;71.82;27.27;;;1.90;99.90;;;;;;5117527;27;20043;-90
2021/12/03 08:42:30;;;;;;;69.20;29.38;;;1.90;99.90;;;;;;5101881;27;20047;-90
2021/12/03 08:44:58;;;;;;;63.88;27.05;;;2.00;99.90;;;;;;5102212;27;20138;-91
2021/12/03 08:47:24;;;;;;;73.38;28.58;;;2.10;99.90;;;;;;5118879;27;20043;-92
2021/12/03 08:49:52;;;;;;;73.95;29.20;;;2.30;99.90;;;;;;5101544;27;20054;-90
2021/12/03 08:54:52;;;;;;;58.13;24.70;;;2.20;99.90;;;;;;5118033;27;20051;-90
2021/12/03 08:57:24;;;;;;;70.20;27.85;;;2.30;99.90;;;;;;5101548;27;20054;-89
2021/12/03 08:59:59;;;;;;;57.00;26.90;;;2.20;99.90;;;;;;5118766;27;20039;-90
2021/12/03 09:02:25;;;;;;;57.25;25.70;;;2.20;99.90;;;;;;5118663;27;20096;-91
2021/12/03 09:04:51;;;;;;;58.65;26.02;;;2.20;99.90;;;;;;5101584;27;20415;-92
2021/12/03 09:07:17;;;;;;;67.05;25.55;;;2.20;99.90;;;;;;5118268;27;20051;-89
2021/12/03 09:09:43;;;;;;;63.15;24.92;;;2.50;99.90;;;;;;5118441;27;20139;-89
2021/12/03 09:12:10;;;;;;;51.95;23.45;;;2.30;99.90;;;;;;5100990;27;20082;-89
2021/12/03 09:14:59;;;;;;;72.43;28.40;;;2.30;99.90;;;;;;5101232;27;20126;-91
2021/12/03 09:20:05;;;;;;;58.53;25.13;;;2.40;99.90;;;;;;5118606;27;20051;-91
2021/12/03 09:22:38;;;;;;;60.30;25.20;;;2.70;99.90;;;;;;5100926;27;20507;-92
2021/12/03 09:25:07;;;;;;;56.47;24.30;;;2.40;99.90;;;;;;5101584;27;20473;-92
2021/12/03 09:27:33;;;;;;;56.60;23.52;;;2.40;99.90;;;;;;5101186;27;20047;-91
2021/12/03 09:29:59;;;;;;;59.40;23.38;;;2.80;99.90;;;;;;5118302;27;20065;-91
2021/12/03 09:32:31;;;;;;;55.50;22.38;;;2.70;99.90;;;;;;5101089;27;20039;-92
2021/12/03 09:34:57;;;;;;;49.72;22.15;;;2.50;99.90;;;;;;5100731;27;20055;-92
2021/12/03 09:37:24;;;;;;;43.83;19.90;;;2.50;99.90;;;;;;5101987;27;20051;-93
2021/12/03 09:39:50;;;;;;;54.03;21.58;;;2.50;99.90;;;;;;5118251;27;20051;-93
2021/12/03 09:42:18;;;;;;;41.13;18.95;;;2.50;99.90;;;;;;5101851;27;20095;-93
2021/12/03 09:44:45;;;;;;;45.25;19.20;;;2.60;99.90;;;;;;5101258;27;20078;-92
2021/12/03 09:47:14;;;;;;;36.42;16.73;;;2.70;99.90;;;;;;5101123;27;20047;-91
2021/12/03 09:49:41;;;;;;;41.25;16.85;;;2.70;99.90;;;;;;5118413;27;20107;-93
2021/12/03 09:52:36;;;;;;;41.67;16.65;;;3.10;99.90;;;;;;5118259;27;20047;-91
2021/12/03 09:55:09;;;;;;;36.42;14.48;;;2.80;99.90;;;;;;5101750;27;20046;-92
2021/12/03 09:57:43;;;;;;;28.05;12.50;;;2.90;99.90;;;;;;5118073;27;20083;-89
2021/12/03 10:00:22;;;;;;;27.58;10.13;;;3.00;99.90;;;;;;5117600;27;20043;-90
2021/12/03 10:09:29;;;;;;;28.88;9.93;;;3.10;99.90;;;;;;5134567;27;20047;-89
2021/12/03 10:20:03;;;;;;;30.70;8.45;;;3.10;99.90;;;;;;5075343;28;20078;-91
2021/12/03 10:39:26;;;;;;;32.92;8.15;;;3.00;99.90;;;;;;5034994;28;20409;-88
2021/12/03 10:47:30;;;;;;;19.77;6.43;;;3.00;99.90;;;;;;5034975;28;20045;-89
2021/12/03 13:17:24;;;;;;;13.63;5.68;;;3.10;99.90;;;;;;5097894;28;20048;-92
2021/12/03 13:20:03;;;;;;;16.75;5.90;;;3.30;99.90;;;;;;5097053;28;20051;-94
2021/12/03 14:01:57;;;;;;;11.80;4.85;;;3.20;99.90;;;;;;5097079;28;20062;-92
2021/12/03 14:09:11;;;;;;;20.63;5.78;;;3.30;99.90;;;;;;5097011;28;20048;-91
2021/12/03 14:42:05;;;;;;;10.00;5.03;;;3.60;99.90;;;;;;5054915;28;20045;-91
2021/12/03 14:44:57;;;;;;;14.05;4.57;;;3.60;99.90;;;;;;5037996;28;20051;-93
2021/12/03 14:55:47;;;;;;;8.13;4.70;;;3.70;99.90;;;;;;4995455;28;20057;-92
2021/12/03 14:58:17;;;;;;;13.13;5.25;;;3.70;99.90;;;;;;4995016;28;20064;-94
2021/12/03 15:08:57;;;;;;;13.55;4.65;;;3.70;99.90;;;;;;4995232;28;20056;-93
2021/12/03 15:11:56;;;;;;;12.83;5.47;;;3.70;99.90;;;;;;4995403;28;20050;-92
2021/12/03 15:25:10;;;;;;;11.65;5.68;;;3.70;99.90;;;;;;5014253;28;20576;-94
2021/12/03 15:35:51;;;;;;;16.10;6.72;;;3.80;99.90;;;;;;5095597;28;20059;-90
2021/12/03 15:38:30;;;;;;;10.55;6.35;;;3.70;99.90;;;;;;5078201;28;20055;-92
2021/12/03 15:51:58;;;;;;;11.80;5.82;;;3.70;99.90;;;;;;5113243;28;20134;-90
2021/12/03 16:04:50;;;;;;;9.00;5.40;;;3.80;99.90;;;;;;5098306;28;20189;-91
2021/12/03 16:07:27;;;;;;;13.27;6.67;;;3.80;99.90;;;;;;5098939;28;20576;-88
2021/12/03 16:20:36;;;;;;;9.68;7.07;;;3.80;99.90;;;;;;5057464;28;20158;-88
2021/12/03 16:50:45;;;;;;;13.32;8.32;;;3.90;99.90;;;;;;4997411;28;20204;-88
2021/12/03 16:53:07;;;;;;;10.68;7.43;;;3.90;99.90;;;;;;4997130;28;20116;-91
2021/12/03 16:55:33;;;;;;;11.52;8.65;;;3.90;99.90;;;;;;5017181;28;20394;-91
2021/12/03 16:57:59;;;;;;;12.23;8.43;;;4.20;99.90;;;;;;5000316;28;20191;-91
2021/12/03 17:08:31;;;;;;;9.77;8.23;;;3.90;99.90;;;;;;5016504;28;20422;-88
2021/12/03 17:13:44;;;;;;;11.32;8.77;;;4.00;99.90;;;;;;4977957;28;20144;-87
2021/12/03 17:51:04;;;;;;;60.20;39.40;;;3.90;99.90;;;;;;5000169;28;20515;-89
2021/12/03 17:53:50;;;;;;;69.85;45.25;;;3.90;99.90;;;;;;5012631;28;20165;-87
2021/12/03 17:56:18;;;;;;;28.50;20.40;;;3.90;99.90;;;;;;5012472;28;20467;-89
2021/12/03 17:58:56;;;;;;;45.95;27.55;;;3.90;99.90;;;;;;4995274;28;20141;-88
2021/12/03 18:01:32;;;;;;;50.05;30.73;;;3.90;99.90;;;;;;5012699;28;20049;-89
2021/12/03 18:12:11;;;;;;;33.70;20.30;;;3.90;99.90;;;;;;5113403;28;20544;-89
2021/12/03 18:44:27;;;;;;;46.15;27.50;;;4.00;99.90;;;;;;5112796;28;20052;-90
2021/12/03 18:47:16;;;;;;;41.38;27.40;;;4.00;99.90;;;;;;5079181;28;20043;-90
2021/12/03 18:57:46;;;;;;;54.17;33.72;;;4.00;99.90;;;;;;5113254;28;20138;-92
2021/12/03 19:00:16;;;;;;;49.20;29.90;;;4.00;99.90;;;;;;5079332;28;20481;-90
2021/12/03 19:02:46;;;;;;;39.85;25.77;;;4.20;99.90;;;;;;5078957;28;20051;-91
2021/12/03 19:08:01;;;;;;;39.80;26.17;;;4.10;99.90;;;;;;5112904;28;20048;-90
2021/12/03 19:10:29;;;;;;;51.17;29.52;;;4.10;99.90;;;;;;5079245;28;20047;-88
2021/12/03 19:13:03;;;;;;;73.07;42.97;;;4.00;99.90;;;;;;5095806;28;20519;-91
2021/12/03 19:15:29;;;;;;;74.35;43.10;;;4.10;99.90;;;;;;5078956;28;20087;-90
2021/12/03 19:18:00;;;;;;;41.30;26.95;;;4.10;99.90;;;;;;5095679;28;20055;-90
2021/12/03 19:20:28;;;;;;;77.55;38.42;;;4.10;99.90;;;;;;5078716;28;20051;-90
2021/12/03 19:22:53;;;;;;;67.32;36.38;;;4.20;99.90;;;;;;5095380;28;20048;-88
2021/12/03 19:25:19;;;;;;;58.45;33.40;;;4.10;99.90;;;;;;5099321;28;20058;-88
2021/12/03 19:27:45;;;;;;;51.65;30.33;;;4.10;99.90;;;;;;5099611;28;20074;-89
2021/12/03 19:30:11;;;;;;;53.80;34.22;;;4.10;99.90;;;;;;5099997;28;20036;-90
2021/12/03 19:32:38;;;;;;;35.28;21.13;;;4.10;99.90;;;;;;5099904;28;20050;-91
2021/12/03 19:35:06;;;;;;;41.00;24.90;;;4.40;99.90;;;;;;5099409;28;20081;-89
2021/12/03 19:37:31;;;;;;;56.33;24.45;;;4.10;99.90;;;;;;5099510;28;20557;-90
2021/12/03 19:40:02;;;;;;;40.70;22.70;;;4.30;99.90;;;;;;5099848;28;20047;-92
2021/12/03 19:45:23;;;;;;;50.38;24.08;;;4.20;99.90;;;;;;5097884;28;20496;-89
2021/12/03 19:48:13;;;;;;;45.15;25.73;;;4.20;99.90;;;;;;5082415;28;20050;-91
2021/12/03 19:50:41;;;;;;;51.47;29.02;;;4.20;99.90;;;;;;5099056;28;20048;-88
2021/12/03 19:53:12;;;;;;;32.70;20.65;;;4.10;99.90;;;;;;5082425;28;20077;-90
2021/12/03 19:55:38;;;;;;;52.28;32.15;;;4.20;99.90;;;;;;5082069;28;20044;-91
2021/12/03 19:58:05;;;;;;;51.88;31.00;;;4.20;99.90;;;;;;5099689;28;20131;-90
2021/12/03 20:00:31;;;;;;;49.40;25.60;;;4.20;99.90;;;;;;5081569;28;20056;-90
2021/12/03 20:02:56;;;;;;;47.72;26.70;;;4.20;99.90;;;;;;5099054;28;20046;-90
2021/12/03 20:05:22;;;;;;;58.58;26.88;;;4.20;99.90;;;;;;5082222;28;20483;-89
2021/12/03 20:07:48;;;;;;;35.42;22.45;;;4.20;99.90;;;;;;5099137;28;20036;-89
2021/12/03 20:10:17;;;;;;;51.38;27.27;;;4.20;99.90;;;;;;5099154;28;20039;-89
2021/12/03 20:12:46;;;;;;;41.65;23.50;;;4.20;99.90;;;;;;5082211;28;20052;-90
2021/12/03 20:15:18;;;;;;;43.13;24.27;;;4.20;99.90;;;;;;5081923;28;20086;-91
2021/12/03 20:17:57;;;;;;;43.50;24.00;;;4.20;99.90;;;;;;5099078;28;20052;-90
2021/12/03 20:20:25;;;;;;;49.95;25.20;;;4.20;99.90;;;;;;5099102;28;20307;-90